HTWT2: E Fk Little Wichita Rv nr Henrietta, TX

Data processed at Wed May 22 2019 23:50


All information presented herein is the property of the government of the United States of America and may be revised or deleted at any time without prior notice.
Dissemination of this information without the expressed written consent of the Public Affairs Office, Tulsa District U.S. Army Corps of Engineers is strictly prohibited.
These data are gathered electronically and, as presented, have not undergone any form of quality control. These data are not guaranteed to be valid or correct.
Go to home page.
Go to station list.
Go to home page.

Downstream station:


Previous Day
Next Day
Current Day
    
SHEF ID:       HTWT2     E Fk Little Wichita Rv nr Henrie
STATION TYPE:  

                STAGE  RIV-FLOW   VOLTAGE  BAT-LOAD
                   ft       cfs      volt      volt
              Ccp-Rev   Ccp-Rev   Ccp-Rev   Ccp-Rev
(US/Central)
05/22 00:00     12.28       380      ----      ----
05/22 01:00     12.37       389     12.97     11.42
05/22 02:00     12.47       400     12.93     11.42
05/22 03:00     12.56       409     12.94     11.42
05/22 04:00     12.64       418     12.90     11.42
05/22 05:00     12.71       426     12.88     11.42
05/22 06:00     12.77       433     12.90     11.37
05/22 07:00     12.84       441     12.88     11.37
05/22 08:00     12.91       449     12.91     11.37
05/22 09:00     12.97       456     13.05     11.37
05/22 10:00     13.04       464     13.30     11.48
05/22 11:00     13.11       473     13.53     11.72
05/22 12:00     13.16       479     13.60     11.95
05/22 13:00     13.18       482     14.46     11.95
05/22 14:00     13.21       485     14.40     12.36
05/22 15:00     13.23       488     14.40     12.24
05/22 16:00     13.24       489     14.27     12.30
05/22 17:00     13.25       490     14.40     12.24
05/22 18:00     13.22       486     14.33     12.24
05/22 19:00     13.14       477     13.33     12.24
05/22 20:00     13.04       464     13.08     11.72
05/22 21:00     12.91       449     12.99     11.48
05/22 22:00     12.72       427     12.97     11.42
05/22 23:00     12.47       400     12.96     11.42